Time;durP1;ratioP1;P1;durP2;ratioP2;P2;SDS_P1;SDS_P2;PMS_P1;PMS_P2;Temp;Humidity;BMP_temperature;BMP_pressure;BME280_temperature;BME280_humidity;BME280_pressure;Samples;Min_cycle;Max_cycle;Signal;HPM_P1;HPM_P2
2022/01/26 00:05:53;;;;;;;62.70;26.00;;;;;;;3.24;89.79;99550.06;4953934;23;20197;-93
2022/01/26 00:07:58;;;;;;;55.80;25.25;;;;;;;3.23;90.23;99552.66;4991773;23;20187;-93
2022/01/26 00:10:01;;;;;;;61.88;27.00;;;;;;;3.26;90.12;99555.19;4991312;23;20194;-92
2022/01/26 00:12:05;;;;;;;62.67;26.90;;;;;;;3.26;89.61;99555.19;4992120;23;20179;-93
2022/01/26 00:14:12;;;;;;;69.13;29.08;;;;;;;3.25;89.51;99556.94;5016068;23;20202;-93
2022/01/26 00:16:25;;;;;;;66.40;27.50;;;;;;;3.24;90.30;99559.53;4991604;23;20218;-93
2022/01/26 00:18:31;;;;;;;66.78;28.20;;;;;;;3.26;90.68;99562.94;4991160;23;20556;-93
2022/01/26 00:20:41;;;;;;;74.55;28.92;;;;;;;3.25;89.97;99569.81;4990531;23;20715;-93
2022/01/26 00:22:59;;;;;;;65.03;28.02;;;;;;;3.27;89.70;99567.22;4991746;23;20187;-93
2022/01/26 00:25:20;;;;;;;67.82;28.20;;;;;;;3.27;90.19;99567.22;4991413;23;20644;-93
2022/01/26 00:27:36;;;;;;;70.38;30.17;;;;;;;3.27;90.16;99562.06;4991794;23;20230;-93
2022/01/26 00:29:42;;;;;;;70.85;28.67;;;;;;;3.22;89.68;99566.44;4990641;23;20262;-93
2022/01/26 00:39:02;;;;;;;77.70;29.80;;;;;;;3.04;90.62;99564.16;4990890;23;20190;-93
2022/01/26 00:41:11;;;;;;;74.55;27.67;;;;;;;3.04;90.92;99564.16;5015798;23;20233;-91
2022/01/26 00:43:19;;;;;;;71.88;28.20;;;;;;;3.00;90.19;99563.34;4991684;23;20202;-93
2022/01/26 00:45:26;;;;;;;82.13;29.80;;;;;;;2.98;91.17;99556.53;5015252;23;20204;-92
2022/01/26 00:47:30;;;;;;;68.40;28.60;;;;;;;2.97;91.31;99557.38;4991270;23;20246;-93
2022/01/26 00:49:33;;;;;;;84.68;32.75;;;;;;;2.99;91.02;99553.06;5037801;23;20556;-93
2022/01/26 00:51:38;;;;;;;79.05;29.05;;;;;;;3.00;91.34;99549.63;4991910;23;20259;-93
2022/01/26 00:53:45;;;;;;;71.20;28.10;;;;;;;3.03;91.25;99552.16;4991324;23;20672;-93
2022/01/26 00:55:48;;;;;;;74.00;27.48;;;;;;;3.07;92.03;99553.81;5015504;23;20190;-93
2022/01/26 00:57:53;;;;;;;73.20;30.10;;;;;;;3.09;91.43;99550.31;4992377;23;20190;-93
2022/01/26 00:59:58;;;;;;;82.68;27.75;;;;;;;3.08;91.99;99540.03;4990735;23;20183;-93
2022/01/26 01:02:01;;;;;;;73.95;29.35;;;;;;;3.13;91.25;99543.38;5014764;23;20580;-92
2022/01/26 01:04:06;;;;;;;74.65;27.88;;;;;;;3.14;91.52;99545.94;4990775;23;20269;-93
2022/01/26 01:06:13;;;;;;;74.68;28.95;;;;;;;3.15;91.95;99546.81;5038457;23;20557;-93
2022/01/26 01:08:20;;;;;;;73.05;26.75;;;;;;;3.16;91.23;99548.47;5015450;23;21014;-93
2022/01/26 01:10:24;;;;;;;82.75;28.60;;;;;;;3.16;91.71;99553.63;4990290;23;20527;-92
2022/01/26 01:12:28;;;;;;;70.75;27.88;;;;;;;3.18;91.35;99547.59;4990974;23;20179;-93
2022/01/26 01:14:37;;;;;;;74.35;28.90;;;;;;;3.20;91.72;99545.00;5014752;23;20579;-92
2022/01/26 01:16:43;;;;;;;84.13;30.35;;;;;;;3.23;91.54;99540.63;5013569;23;20178;-92
2022/01/26 01:18:52;;;;;;;79.22;28.92;;;;;;;3.23;91.37;99545.78;5015476;23;20229;-93
2022/01/26 01:21:22;;;;;;;78.63;27.60;;;;;;;3.22;91.20;99545.81;5013440;23;20182;-93
2022/01/26 01:23:42;;;;;;;81.68;29.25;;;;;;;3.23;91.23;99550.09;5014733;23;20179;-92
2022/01/26 01:28:26;;;;;;;82.35;29.95;;;;;;;3.26;91.00;99560.34;4957494;23;20207;-92
2022/01/26 01:30:35;;;;;;;82.55;30.60;;;;;;;3.25;91.55;99558.66;4990299;23;20243;-93
2022/01/26 01:32:51;;;;;;;75.70;28.02;;;;;;;3.21;90.94;99562.16;4991634;23;20186;-93
2022/01/26 01:34:56;;;;;;;81.45;29.05;;;;;;;3.19;91.02;99566.47;5014462;23;20185;-92
2022/01/26 01:37:04;;;;;;;78.10;27.25;;;;;;;3.20;91.34;99561.28;5014138;23;20189;-93
2022/01/26 01:39:10;;;;;;;86.15;29.02;;;;;;;3.26;91.28;99570.66;4990478;23;20187;-93
2022/01/26 01:41:13;;;;;;;84.88;31.20;;;;;;;3.24;91.85;99564.69;4991186;23;20234;-93
2022/01/26 01:43:17;;;;;;;90.22;29.17;;;;;;;3.26;91.65;99557.78;4990986;23;20219;-92
2022/01/26 01:45:34;;;;;;;84.25;30.23;;;;;;;3.28;91.98;99554.31;5038825;23;20922;-92
2022/01/26 01:47:38;;;;;;;83.97;30.10;;;;;;;3.29;91.17;99562.03;5015465;23;20205;-93
2022/01/26 01:49:41;;;;;;;100.57;31.55;;;;;;;3.30;91.12;99555.97;4990179;23;20494;-92
2022/01/26 01:51:49;;;;;;;85.70;30.35;;;;;;;3.29;91.63;99554.28;4990627;23;20183;-93
2022/01/26 01:53:54;;;;;;;84.55;31.83;;;;;;;3.29;91.38;99559.44;5014946;23;20272;-93
2022/01/26 01:55:58;;;;;;;83.05;29.85;;;;;;;3.31;91.69;99562.00;5014568;23;20182;-93
2022/01/26 01:58:02;;;;;;;86.30;31.55;;;;;;;3.32;91.25;99556.81;5016627;23;20172;-94
2022/01/26 02:00:06;;;;;;;81.93;29.42;;;;;;;3.33;91.83;99571.38;5013734;23;20265;-92
2022/01/26 02:02:10;;;;;;;89.07;30.45;;;;;;;3.31;91.63;99565.41;5014871;23;20722;-94
2022/01/26 02:04:14;;;;;;;87.03;30.52;;;;;;;3.33;91.34;99568.81;5014309;23;20174;-93
2022/01/26 02:06:17;;;;;;;85.28;29.10;;;;;;;3.33;91.21;99561.06;5015176;23;20230;-92
2022/01/26 02:08:22;;;;;;;67.85;27.85;;;;;;;3.34;91.40;99562.78;5015265;23;20289;-93
2022/01/26 02:10:28;;;;;;;81.85;29.70;;;;;;;3.32;91.90;99561.09;5014427;23;20202;-92
2022/01/26 02:12:33;;;;;;;66.00;26.13;;;;;;;3.34;90.87;99555.06;5014403;23;20178;-93
2022/01/26 02:14:41;;;;;;;70.88;27.83;;;;;;;3.30;91.25;99558.53;5014745;23;20182;-93
2022/01/26 02:16:50;;;;;;;67.40;25.70;;;;;;;3.31;91.21;99559.41;4991607;23;20174;-92
2022/01/26 02:19:19;;;;;;;69.20;27.33;;;;;;;3.33;90.70;99550.75;5014664;23;20201;-93
2022/01/26 02:21:41;;;;;;;62.00;26.40;;;;;;;3.28;90.80;99544.00;5014183;23;20853;-92
2022/01/26 02:50:06;;;;;;;74.13;27.38;;;;;;;3.29;91.28;99545.69;4991267;23;20182;-92
2022/01/26 02:52:22;;;;;;;75.95;29.30;;;;;;;3.31;91.33;99541.38;4991373;23;20294;-92
2022/01/26 03:07:38;;;;;;;77.38;29.30;;;;;;;3.11;91.34;99555.44;4202496;27;20316;-91
2022/01/26 03:09:46;;;;;;;76.32;27.33;;;;;;;3.09;91.58;99550.31;4166481;28;20615;-92
2022/01/26 03:11:50;;;;;;;80.07;28.40;;;;;;;3.12;92.24;99550.25;4168089;28;20591;-91
2022/01/26 03:14:00;;;;;;;92.20;28.67;;;;;;;3.15;93.05;99552.78;4151208;28;20228;-91
2022/01/26 03:16:10;;;;;;;85.43;29.65;;;;;;;3.20;92.32;99542.41;4138998;28;21589;-91
2022/01/26 03:20:35;;;;;;;85.18;30.75;;;;;;;3.27;92.36;99544.88;4153057;28;20207;-91
2022/01/26 03:29:57;;;;;;;102.05;33.08;;;;;;;3.38;92.56;99546.41;4150541;28;20261;-91
2022/01/26 03:34:19;;;;;;;90.75;31.80;;;;;;;3.40;92.12;99543.81;4153305;28;20535;-91
2022/01/26 03:36:27;;;;;;;84.65;30.70;;;;;;;3.40;91.97;99542.06;4138111;28;20255;-92
2022/01/26 03:38:41;;;;;;;93.60;34.50;;;;;;;3.41;92.01;99546.34;4135824;28;20204;-92
2022/01/26 03:40:45;;;;;;;89.72;31.50;;;;;;;3.43;91.32;99547.16;4153381;28;20380;-92
2022/01/26 03:42:48;;;;;;;85.15;31.08;;;;;;;3.41;91.40;99548.06;4150746;28;20211;-92
2022/01/26 03:44:51;;;;;;;86.60;31.63;;;;;;;3.40;91.60;99547.22;4137910;28;20204;-92
2022/01/26 03:46:54;;;;;;;77.40;30.63;;;;;;;3.42;91.60;99544.63;4139392;28;20626;-92
2022/01/26 03:48:57;;;;;;;86.80;31.95;;;;;;;3.45;91.40;99553.13;4169894;28;20207;-92
2022/01/26 03:51:00;;;;;;;82.95;32.63;;;;;;;3.46;91.66;99560.00;4138719;28;20212;-92
2022/01/26 03:53:06;;;;;;;78.78;28.48;;;;;;;3.48;91.70;99553.09;4172550;28;20790;-92
2022/01/26 03:55:11;;;;;;;70.88;28.25;;;;;;;3.47;91.08;99556.56;4150813;28;20215;-92
2022/01/26 03:57:15;;;;;;;74.65;29.75;;;;;;;3.46;91.57;99554.00;4137296;28;20729;-92
2022/01/26 03:59:18;;;;;;;79.97;29.58;;;;;;;3.46;91.51;99554.84;4134153;28;20295;-92
2022/01/26 04:01:21;;;;;;;75.53;28.30;;;;;;;3.46;91.12;99548.84;4153858;28;20199;-92
2022/01/26 04:03:25;;;;;;;76.68;29.05;;;;;;;3.46;91.37;99560.00;4152940;28;20211;-92
2022/01/26 04:05:28;;;;;;;75.78;27.42;;;;;;;3.44;90.76;99561.78;4135126;28;20975;-92
2022/01/26 04:07:32;;;;;;;71.53;28.50;;;;;;;3.44;91.12;99554.03;4130423;28;20286;-92
2022/01/26 04:09:35;;;;;;;73.85;27.75;;;;;;;3.45;91.65;99558.28;4150389;28;20204;-92
2022/01/26 04:11:42;;;;;;;68.88;29.02;;;;;;;3.46;91.16;99559.16;4119407;28;20717;-92
2022/01/26 04:13:45;;;;;;;74.32;29.17;;;;;;;3.47;91.50;99548.84;4122261;28;20218;-92
2022/01/26 04:15:48;;;;;;;73.50;28.05;;;;;;;3.47;91.07;99554.00;4156327;28;20218;-91
2022/01/26 04:17:51;;;;;;;80.88;28.15;;;;;;;3.46;91.75;99546.28;4121037;28;20297;-92
2022/01/26 04:19:57;;;;;;;64.90;27.15;;;;;;;3.45;91.41;99547.97;4122097;28;20256;-91
2022/01/26 04:22:10;;;;;;;72.90;28.13;;;;;;;3.44;90.79;99556.63;4141571;28;20200;-92
2022/01/26 04:24:18;;;;;;;78.93;28.90;;;;;;;3.43;91.36;99549.75;4132459;28;20259;-92
2022/01/26 04:26:26;;;;;;;67.47;26.63;;;;;;;3.43;91.64;99548.91;4126366;28;20232;-92
2022/01/26 04:28:34;;;;;;;70.97;26.63;;;;;;;3.44;91.57;99550.59;4141430;28;20208;-92
2022/01/26 04:30:38;;;;;;;67.10;26.00;;;;;;;3.42;91.44;99542.03;4127800;28;20217;-92
2022/01/26 04:32:42;;;;;;;63.33;25.67;;;;;;;3.44;90.84;99541.16;4153257;28;20203;-92
2022/01/26 04:34:48;;;;;;;65.63;26.65;;;;;;;3.43;91.35;99542.00;4154571;28;20915;-92
2022/01/26 04:36:55;;;;;;;61.13;24.75;;;;;;;3.41;91.29;99541.19;4156643;28;20838;-91
2022/01/26 04:39:02;;;;;;;63.28;26.70;;;;;;;3.41;90.96;99530.88;4138726;28;20207;-94
2022/01/26 04:41:22;;;;;;;66.45;27.92;;;;;;;3.41;90.90;99543.78;4116205;28;20213;-92
2022/01/26 04:43:29;;;;;;;64.28;26.92;;;;;;;3.41;91.25;99543.78;4125751;28;20225;-92
2022/01/26 04:45:34;;;;;;;56.95;24.40;;;;;;;3.43;90.87;99543.75;4141381;28;20204;-92
2022/01/26 04:47:38;;;;;;;60.13;24.60;;;;;;;3.42;90.72;99527.41;4123113;28;20231;-92
2022/01/26 04:49:41;;;;;;;73.05;26.00;;;;;;;3.42;91.53;99532.56;4134300;28;20197;-92
2022/01/26 04:51:45;;;;;;;61.30;25.15;;;;;;;3.41;91.43;99533.47;4153881;28;20203;-91
2022/01/26 04:53:48;;;;;;;62.17;25.95;;;;;;;3.46;91.18;99528.22;4138170;28;20224;-92
2022/01/26 04:55:52;;;;;;;59.58;24.10;;;;;;;3.45;90.98;99526.53;4134089;28;20309;-92
2022/01/26 04:57:57;;;;;;;63.42;26.35;;;;;;;3.45;90.37;99532.50;4116810;28;20276;-92
2022/01/26 05:00:00;;;;;;;58.40;24.80;;;;;;;3.44;90.77;99528.25;4121511;28;20251;-92
2022/01/26 05:02:05;;;;;;;62.30;26.10;;;;;;;3.44;90.85;99535.13;4125343;28;20213;-91
2022/01/26 05:04:09;;;;;;;60.88;25.38;;;;;;;3.44;90.39;99530.84;4135603;28;20220;-92
2022/01/26 05:06:12;;;;;;;62.20;24.88;;;;;;;3.44;91.19;99529.97;4138847;28;20223;-91
2022/01/26 05:08:15;;;;;;;65.28;27.75;;;;;;;3.44;90.62;99527.38;4141505;28;20204;-92
2022/01/26 05:10:19;;;;;;;68.10;25.50;;;;;;;3.42;91.04;99524.84;4122753;28;20210;-92
2022/01/26 05:12:23;;;;;;;64.13;26.67;;;;;;;3.40;90.75;99524.03;4131776;28;20346;-92
2022/01/26 05:14:26;;;;;;;67.30;24.92;;;;;;;3.40;90.13;99528.34;4139572;28;20726;-91
2022/01/26 05:16:29;;;;;;;60.08;24.77;;;;;;;3.41;90.11;99528.31;4125548;28;20209;-92
2022/01/26 05:18:34;;;;;;;61.25;25.30;;;;;;;3.43;90.20;99529.13;4134169;28;20213;-92
2022/01/26 05:20:37;;;;;;;62.70;25.63;;;;;;;3.42;90.29;99532.56;4143006;28;20224;-92
2022/01/26 05:22:41;;;;;;;58.95;25.20;;;;;;;3.44;90.74;99528.25;4144229;28;20676;-92
2022/01/26 05:24:44;;;;;;;63.58;25.15;;;;;;;3.46;90.31;99526.50;4156758;28;20223;-92
2022/01/26 05:26:47;;;;;;;63.53;25.15;;;;;;;3.45;90.45;99535.09;4128761;28;20220;-92
2022/01/26 05:28:50;;;;;;;61.55;23.92;;;;;;;3.44;90.09;99536.00;4140173;28;20250;-92
2022/01/26 05:30:53;;;;;;;53.58;24.38;;;;;;;3.44;90.33;99517.94;4137362;28;20208;-92
2022/01/26 05:33:04;;;;;;;64.55;26.13;;;;;;;3.45;90.50;99523.94;4126762;28;20219;-91
2022/01/26 05:35:09;;;;;;;62.75;24.60;;;;;;;3.36;90.25;99519.78;4141979;28;20204;-91
2022/01/26 05:37:13;;;;;;;59.42;25.40;;;;;;;3.35;90.11;99514.66;4155993;28;20211;-91
2022/01/26 05:39:16;;;;;;;57.83;24.75;;;;;;;3.33;90.56;99512.09;4121863;28;20197;-93
2022/01/26 05:41:19;;;;;;;65.82;25.70;;;;;;;3.29;90.50;99520.78;4142090;28;20209;-92
2022/01/26 05:43:22;;;;;;;64.45;25.67;;;;;;;3.26;90.48;99529.44;4126783;28;20310;-91
2022/01/26 05:45:30;;;;;;;59.50;25.25;;;;;;;3.27;90.95;99531.16;4125610;28;20225;-89
2022/01/26 05:47:34;;;;;;;61.97;25.13;;;;;;;3.29;90.17;99533.66;4122911;28;20290;-89
2022/01/26 05:49:37;;;;;;;61.58;24.17;;;;;;;3.29;91.00;99536.25;4137968;28;20218;-89
2022/01/26 05:51:45;;;;;;;64.15;24.00;;;;;;;3.30;90.52;99537.94;4126108;28;20232;-88
2022/01/26 05:53:48;;;;;;;60.00;24.05;;;;;;;3.34;90.15;99542.16;4123986;28;20545;-88
2022/01/26 05:55:53;;;;;;;53.08;23.25;;;;;;;3.35;90.19;99546.47;4141831;28;20204;-89
2022/01/26 05:57:56;;;;;;;58.20;24.95;;;;;;;3.35;90.48;99533.56;4153523;28;20200;-89
2022/01/26 05:59:59;;;;;;;56.53;24.17;;;;;;;3.34;90.06;99541.31;4141313;28;20204;-89
2022/01/26 06:02:06;;;;;;;55.85;23.15;;;;;;;3.33;90.33;99530.16;4126830;28;20213;-89
2022/01/26 06:04:11;;;;;;;56.72;24.58;;;;;;;3.34;90.62;99529.28;4136279;28;20300;-89
2022/01/26 06:06:15;;;;;;;56.67;23.92;;;;;;;3.32;89.77;99523.31;4139013;28;20283;-90
2022/01/26 06:08:20;;;;;;;61.20;23.10;;;;;;;3.34;90.49;99529.28;4140186;28;20613;-91
2022/01/26 06:10:23;;;;;;;55.92;24.13;;;;;;;3.36;90.40;99517.19;4139847;28;20223;-89
2022/01/26 06:12:26;;;;;;;56.10;22.70;;;;;;;3.36;90.38;99522.34;4126539;28;20228;-88
2022/01/26 06:14:29;;;;;;;54.35;21.73;;;;;;;3.35;89.61;99524.97;4141798;28;20216;-88
2022/01/26 06:16:35;;;;;;;58.85;21.60;;;;;;;3.37;90.32;99531.81;4129025;28;20211;-88
2022/01/26 06:18:38;;;;;;;54.53;22.95;;;;;;;3.36;90.06;99527.50;4135766;28;20208;-88
2022/01/26 06:20:42;;;;;;;52.10;22.92;;;;;;;3.36;89.50;99522.34;4114422;28;20205;-88
2022/01/26 06:22:45;;;;;;;52.42;22.60;;;;;;;3.39;90.46;99514.56;4121417;28;21798;-88
2022/01/26 06:24:49;;;;;;;49.70;22.13;;;;;;;3.39;90.16;99512.00;4138766;28;20204;-88
2022/01/26 06:26:52;;;;;;;47.47;21.08;;;;;;;3.35;89.36;99510.38;4122852;28;20217;-89
2022/01/26 06:28:55;;;;;;;40.25;18.63;;;;;;;3.33;89.34;99511.25;4161577;28;20222;-89
2022/01/26 06:31:10;;;;;;;46.83;20.52;;;;;;;3.35;89.78;99512.94;4142592;28;20230;-89
2022/01/26 06:33:14;;;;;;;42.28;19.02;;;;;;;3.32;89.24;99504.41;4155813;28;20230;-88
2022/01/26 06:35:17;;;;;;;43.13;20.25;;;;;;;3.30;89.53;99506.16;4117781;28;20209;-88
2022/01/26 06:37:21;;;;;;;43.05;19.40;;;;;;;3.29;89.46;99500.16;4134735;28;20208;-89
2022/01/26 06:39:24;;;;;;;44.55;19.60;;;;;;;3.33;88.90;99506.94;4156015;28;20254;-89
2022/01/26 06:41:32;;;;;;;44.15;20.13;;;;;;;3.35;89.32;99500.06;4143108;28;20208;-88
2022/01/26 06:43:45;;;;;;;49.10;23.10;;;;;;;3.36;89.20;99508.63;4123997;28;20212;-89
2022/01/26 06:45:51;;;;;;;45.00;20.73;;;;;;;3.36;89.07;99504.31;4127034;28;20255;-89
2022/01/26 06:48:14;;;;;;;46.17;20.58;;;;;;;3.38;89.74;99515.47;4122028;28;20688;-90
2022/01/26 06:50:18;;;;;;;50.50;21.77;;;;;;;3.39;89.34;99516.31;4134309;28;20204;-91
2022/01/26 06:52:21;;;;;;;48.55;19.73;;;;;;;3.42;88.72;99518.84;4140399;28;20719;-89
2022/01/26 06:54:24;;;;;;;51.05;20.95;;;;;;;3.44;89.38;99519.66;4126750;28;20215;-89
2022/01/26 06:56:32;;;;;;;49.47;22.15;;;;;;;3.41;88.58;99514.53;4142511;28;20203;-88
2022/01/26 06:58:35;;;;;;;50.75;22.92;;;;;;;3.41;88.92;99525.72;4123316;28;20723;-88
2022/01/26 07:00:38;;;;;;;49.67;20.38;;;;;;;3.39;88.78;99522.31;4124881;28;20205;-88
2022/01/26 07:02:41;;;;;;;47.78;20.23;;;;;;;3.40;88.69;99524.03;4124868;28;20233;-88
2022/01/26 07:04:45;;;;;;;56.22;21.90;;;;;;;3.36;89.20;99524.94;4157606;28;20823;-88
2022/01/26 07:06:48;;;;;;;50.53;20.05;;;;;;;3.34;89.41;99529.28;4125294;28;20271;-88
2022/01/26 07:08:51;;;;;;;46.97;21.38;;;;;;;3.34;88.64;99534.44;4126517;28;20221;-88
2022/01/26 07:10:54;;;;;;;46.70;20.17;;;;;;;3.32;89.04;99531.03;4150296;28;20204;-89
2022/01/26 07:12:58;;;;;;;53.90;23.05;;;;;;;3.31;89.38;99537.06;4139455;28;20286;-89
2022/01/26 07:19:54;;;;;;;50.08;20.63;;;;;;;3.32;89.19;99549.09;4137315;28;20239;-88
2022/01/26 07:21:58;;;;;;;55.47;21.88;;;;;;;3.30;89.37;99557.72;4118722;28;20198;-91
2022/01/26 07:24:03;;;;;;;49.20;21.60;;;;;;;3.29;89.82;99556.88;4125158;28;20205;-90
2022/01/26 07:26:06;;;;;;;50.45;22.13;;;;;;;3.23;89.61;99548.34;4123608;28;20213;-89
2022/01/26 07:28:11;;;;;;;47.78;20.42;;;;;;;3.24;89.60;99549.22;4141685;28;20220;-86
2022/01/26 07:30:21;;;;;;;52.38;21.63;;;;;;;3.25;89.86;99549.22;4126631;28;20205;-86
2022/01/26 07:32:26;;;;;;;46.30;20.13;;;;;;;3.26;90.04;99553.47;4135223;28;20205;-86
2022/01/26 07:34:29;;;;;;;50.58;23.20;;;;;;;3.27;89.26;99563.75;4139858;28;20200;-86
2022/01/26 07:36:32;;;;;;;54.30;22.63;;;;;;;3.28;89.85;99556.88;4142264;28;20235;-86
2022/01/26 07:38:38;;;;;;;52.30;22.52;;;;;;;3.30;89.29;99560.28;4124134;28;20204;-95
2022/01/26 07:40:42;;;;;;;54.65;22.42;;;;;;;3.31;90.00;99559.41;4120439;28;20464;-90
2022/01/26 07:42:45;;;;;;;50.58;20.55;;;;;;;3.29;89.93;99566.31;4140935;28;20208;-90
2022/01/26 07:44:52;;;;;;;50.25;22.27;;;;;;;3.31;89.66;99575.72;4131470;28;24286;-89
2022/01/26 07:46:55;;;;;;;50.53;22.75;;;;;;;3.35;89.83;99568.78;4147839;28;20204;-92
2022/01/26 07:49:03;;;;;;;54.35;22.75;;;;;;;3.33;89.64;99579.13;4148102;28;20629;-92
2022/01/26 07:51:06;;;;;;;46.35;20.08;;;;;;;3.33;89.68;99579.13;4144468;28;20204;-92
2022/01/26 07:53:14;;;;;;;44.22;19.92;;;;;;;3.32;89.44;99574.84;4133730;28;20215;-92
2022/01/26 07:55:20;;;;;;;47.85;21.35;;;;;;;3.28;89.76;99572.34;4149250;28;20759;-92
2022/01/26 07:57:26;;;;;;;44.70;20.13;;;;;;;3.34;89.51;99586.00;4132537;28;20300;-91
2022/01/26 07:59:29;;;;;;;46.97;20.05;;;;;;;3.29;89.89;99582.63;4140754;28;20207;-91
2022/01/26 08:01:35;;;;;;;49.53;20.77;;;;;;;3.27;90.29;99592.09;4141850;28;20661;-92
2022/01/26 08:03:40;;;;;;;48.78;21.90;;;;;;;3.32;89.69;99586.88;4128338;28;20296;-91
2022/01/26 08:05:43;;;;;;;47.55;20.52;;;;;;;3.31;90.33;99591.19;4129904;28;20818;-94
2022/01/26 08:07:47;;;;;;;49.22;22.48;;;;;;;3.33;89.82;99592.00;4124647;28;20224;-94
2022/01/26 08:09:51;;;;;;;45.85;20.48;;;;;;;3.35;90.08;99594.56;4123131;28;20737;-93
2022/01/26 08:11:54;;;;;;;43.30;20.48;;;;;;;3.36;89.78;99593.69;4143326;28;20201;-92
2022/01/26 08:13:58;;;;;;;34.72;18.67;;;;;;;3.36;89.12;99585.97;4114154;28;20264;-91
2022/01/26 08:16:01;;;;;;;37.20;18.02;;;;;;;3.31;89.06;99591.19;4131346;28;20208;-91
2022/01/26 08:18:06;;;;;;;36.35;17.77;;;;;;;3.32;88.64;99577.44;4132945;28;20212;-91
2022/01/26 08:20:15;;;;;;;38.65;19.83;;;;;;;3.33;88.49;99589.44;4153266;28;20209;-92
2022/01/26 08:22:20;;;;;;;38.85;18.50;;;;;;;3.38;88.67;99594.50;4135327;28;20231;-92
2022/01/26 08:24:23;;;;;;;38.90;17.92;;;;;;;3.34;87.89;99595.47;4139776;28;20212;-92
2022/01/26 08:26:37;;;;;;;31.17;15.98;;;;;;;3.31;87.65;99592.94;4134345;28;20620;-92
2022/01/26 08:28:45;;;;;;;35.80;16.52;;;;;;;3.32;88.24;99604.91;4135070;28;20212;-93
2022/01/26 08:30:48;;;;;;;32.63;16.75;;;;;;;3.33;88.15;99607.47;4130437;28;20673;-94
2022/01/26 08:32:51;;;;;;;31.40;15.60;;;;;;;3.38;88.21;99613.44;4144242;28;20235;-93
2022/01/26 08:34:56;;;;;;;31.42;16.15;;;;;;;3.37;87.88;99603.97;4129287;28;20689;-96
2022/01/26 08:36:59;;;;;;;33.10;17.60;;;;;;;3.38;87.98;99600.53;4126660;28;20263;-94
2022/01/26 08:39:03;;;;;;;36.47;19.33;;;;;;;3.39;87.46;99601.38;4130001;28;20216;-93
2022/01/26 08:41:07;;;;;;;35.13;17.48;;;;;;;3.36;87.83;99594.53;4119226;28;20212;-93
2022/01/26 08:43:11;;;;;;;42.70;18.83;;;;;;;3.37;87.93;99591.09;4157419;28;20257;-93
2022/01/26 08:45:15;;;;;;;38.78;20.02;;;;;;;3.41;87.59;99597.91;4157756;28;20208;-92
2022/01/26 08:47:18;;;;;;;41.88;19.52;;;;;;;3.45;88.08;99596.97;4139851;28;20211;-92
2022/01/26 08:49:22;;;;;;;38.35;17.58;;;;;;;3.46;87.80;99588.38;4147656;28;20223;-92
2022/01/26 08:51:26;;;;;;;38.92;19.55;;;;;;;3.45;88.12;99599.53;4142252;28;20266;-93
2022/01/26 08:53:30;;;;;;;40.13;20.80;;;;;;;3.42;88.24;99591.84;4138808;28;20232;-94
2022/01/26 08:55:36;;;;;;;43.00;20.02;;;;;;;3.44;88.25;99594.41;4141682;28;20232;-93
2022/01/26 08:57:42;;;;;;;47.97;21.25;;;;;;;3.46;88.24;99597.84;4131583;28;20290;-93
2022/01/26 08:59:45;;;;;;;45.70;20.77;;;;;;;3.47;88.32;99602.09;4128250;28;20208;-94
2022/01/26 09:01:48;;;;;;;39.80;19.50;;;;;;;3.47;88.56;99602.09;4124260;28;20209;-93
2022/01/26 09:03:52;;;;;;;41.00;19.45;;;;;;;3.45;87.68;99602.13;4127924;28;20218;-94
2022/01/26 09:05:58;;;;;;;36.20;18.33;;;;;;;3.41;87.63;99603.06;4142913;28;20219;-93
2022/01/26 09:08:07;;;;;;;41.55;19.13;;;;;;;3.40;88.46;99603.94;4126645;28;20204;-94
2022/01/26 09:10:12;;;;;;;40.83;18.40;;;;;;;3.39;88.62;99609.94;4128974;28;20360;-93
2022/01/26 09:12:17;;;;;;;36.50;17.90;;;;;;;3.47;88.58;99613.28;4120185;28;20288;-93
2022/01/26 09:14:23;;;;;;;39.40;17.83;;;;;;;3.41;88.14;99618.53;4128690;28;20312;-94
2022/01/26 09:16:28;;;;;;;34.72;17.67;;;;;;;3.39;88.33;99624.59;4128416;28;20263;-93
2022/01/26 09:18:39;;;;;;;39.45;19.35;;;;;;;3.32;87.50;99628.13;4129138;28;20205;-93
2022/01/26 09:20:42;;;;;;;40.20;20.90;;;;;;;3.33;87.87;99625.50;4142842;28;20204;-94
2022/01/26 09:22:46;;;;;;;37.10;17.77;;;;;;;3.37;88.00;99619.44;4151477;28;20212;-93
2022/01/26 09:24:50;;;;;;;41.78;19.75;;;;;;;3.42;88.43;99616.81;4136467;28;20200;-93
2022/01/26 09:26:53;;;;;;;37.70;18.70;;;;;;;3.40;87.71;99608.25;4136171;28;20303;-93
2022/01/26 09:28:57;;;;;;;39.35;19.55;;;;;;;3.38;88.11;99613.44;4119441;28;20712;-93
2022/01/26 09:31:00;;;;;;;39.90;18.88;;;;;;;3.41;87.36;99613.38;4137642;28;20200;-92
2022/01/26 09:33:03;;;;;;;43.17;18.60;;;;;;;3.32;87.61;99613.53;4123588;28;20301;-93
2022/01/26 09:35:08;;;;;;;60.50;26.33;;;;;;;3.31;88.17;99614.38;4152729;28;20670;-93
2022/01/26 09:37:12;;;;;;;54.42;26.17;;;;;;;3.34;87.78;99611.75;4152637;28;20191;-93
2022/01/26 09:39:21;;;;;;;51.53;23.30;;;;;;;3.35;88.09;99604.88;4142319;28;20303;-93
2022/01/26 09:41:25;;;;;;;39.92;20.00;;;;;;;3.37;87.71;99598.00;4125087;28;20663;-93
2022/01/26 09:43:29;;;;;;;40.28;19.73;;;;;;;3.37;87.26;99588.50;4123128;28;20217;-93
2022/01/26 09:45:34;;;;;;;35.03;18.25;;;;;;;3.41;87.32;99587.59;4126904;28;20217;-93
2022/01/26 09:47:38;;;;;;;42.00;19.55;;;;;;;3.42;87.41;99591.84;4123295;28;20308;-93
2022/01/26 09:50:03;;;;;;;40.60;21.05;;;;;;;3.43;86.95;99601.31;4123321;28;20232;-93
2022/01/26 09:52:13;;;;;;;41.90;20.50;;;;;;;3.35;87.30;99587.69;4140674;28;20208;-93
2022/01/26 09:54:20;;;;;;;44.22;21.88;;;;;;;3.38;87.99;99592.81;4141118;28;20212;-94
2022/01/26 09:56:25;;;;;;;39.10;18.90;;;;;;;3.27;87.61;99589.53;4132875;28;20217;-93
2022/01/26 09:58:30;;;;;;;46.25;19.02;;;;;;;3.13;88.50;99584.59;4144410;28;20311;-93
2022/01/26 10:00:33;;;;;;;36.20;18.58;;;;;;;2.97;88.45;99583.16;4142596;28;20308;-92
2022/01/26 10:02:39;;;;;;;38.95;18.67;;;;;;;2.89;88.97;99572.94;4156662;28;20226;-93
2022/01/26 10:04:45;;;;;;;41.67;19.23;;;;;;;2.82;89.48;99567.91;4137395;28;20276;-93
2022/01/26 10:07:00;;;;;;;43.03;19.33;;;;;;;2.78;90.11;99565.41;4134218;28;20253;-94
2022/01/26 10:09:27;;;;;;;43.13;20.00;;;;;;;2.83;90.18;99567.06;4121495;28;20220;-93
2022/01/26 10:16:45;;;;;;;40.00;16.90;;;;;;;2.81;90.41;99581.66;4123186;28;20696;-93
2022/01/26 10:18:51;;;;;;;39.75;18.77;;;;;;;2.89;90.52;99596.13;4138725;28;20547;-93
2022/01/26 10:20:56;;;;;;;36.33;17.42;;;;;;;2.98;89.99;99596.00;4138800;28;20802;-93
2022/01/26 10:23:06;;;;;;;34.47;14.95;;;;;;;3.02;89.95;99584.78;4141644;28;20203;-93
2022/01/26 10:25:12;;;;;;;32.13;15.98;;;;;;;3.04;89.60;99592.50;4125470;28;20207;-93
2022/01/26 10:27:38;;;;;;;35.85;16.40;;;;;;;3.04;89.07;99593.34;4143542;28;20258;-93
2022/01/26 10:29:46;;;;;;;38.83;17.55;;;;;;;3.12;89.35;99585.50;4136689;28;20204;-93
2022/01/26 10:31:49;;;;;;;38.42;18.27;;;;;;;3.10;89.18;99569.22;4132375;28;20212;-93
2022/01/26 10:33:57;;;;;;;37.60;17.65;;;;;;;3.14;88.91;99557.97;4140793;28;20199;-92
2022/01/26 10:36:02;;;;;;;37.00;18.05;;;;;;;3.19;88.55;99564.78;4128033;28;20212;-93
2022/01/26 10:38:06;;;;;;;35.00;17.45;;;;;;;3.20;88.47;99574.19;4131018;28;20218;-93
2022/01/26 10:40:15;;;;;;;35.08;17.08;;;;;;;3.18;89.02;99586.25;4126823;28;20672;-95
2022/01/26 10:42:21;;;;;;;34.80;17.63;;;;;;;3.18;89.04;99582.81;4148565;28;20290;-93
2022/01/26 10:44:29;;;;;;;36.20;18.27;;;;;;;3.24;88.73;99587.88;4138060;28;20212;-91
2022/01/26 10:46:36;;;;;;;38.05;17.55;;;;;;;3.26;88.28;99594.69;4137757;28;20218;-91
2022/01/26 10:48:43;;;;;;;40.20;19.25;;;;;;;3.31;89.05;99601.50;4120323;28;20228;-91
2022/01/26 10:51:20;;;;;;;37.60;16.88;;;;;;;3.33;87.98;99593.75;4153884;28;20224;-91
2022/01/26 10:53:32;;;;;;;41.38;19.35;;;;;;;3.30;88.16;99604.09;4155885;28;20195;-92
2022/01/26 10:55:39;;;;;;;41.70;19.05;;;;;;;3.29;88.58;99613.56;4120869;28;20255;-92
2022/01/26 10:57:42;;;;;;;40.03;19.40;;;;;;;3.30;87.97;99622.13;4138686;28;20258;-92
2022/01/26 10:59:48;;;;;;;44.65;20.10;;;;;;;3.27;88.71;99620.44;4127826;28;20213;-92
2022/01/26 11:01:51;;;;;;;37.85;17.13;;;;;;;3.27;88.79;99616.19;4140038;28;20222;-92